Flight Track Log - Related Links

Times and Time Zones

All times are in EDT time to prevent confusion due to time zone crossing. See the N247CN flight status page for this flight to view local times or setup timezone preferences in your user account.

Time Position Orientation Groundspeed Altitude Reporting Facility
EDT Latitude Longitude Course Direction KTS MPH feet Rate Location/Type
Sun 10:35:21 AM 26.0750 -80.1389 90° East 162 186 700  Level Miami Center
Sun 10:36:22 AM 26.0744 -80.0697 90° East 212 244 3,500 2,585 Climbing Miami Center
Sun 10:37:24 AM 26.0781 -79.9981 87° East 241 277 6,000 2,292 Climbing Miami Center
Sun 10:37:51 AM 26.0808 -79.9633 85° East 243 280 6,900 2,345 Climbing Miami Center
Sun 10:38:51 AM 26.0656 -79.8958 104° East 274 315 9,400 2,200 Climbing Miami Center
Sun 10:39:51 AM 26.0483 -79.8144 103° East 274 315 11,300 1,950 Climbing Miami Center
Sun 10:40:51 AM 26.0356 -79.7264 99° East 279 321 13,300 1,950 Climbing Miami Center
Sun 10:41:51 AM 26.0228 -79.6336 99° East 291 335 15,200 1,850 Climbing Miami Center
Sun 10:42:51 AM 26.0078 -79.5408 100° East 297 342 17,000 1,773 Climbing Miami Center
Sun 10:44:03 AM 25.9892 -79.4108 99° East 319 367 19,100 1,591 Climbing Miami Center
Sun 10:45:03 AM 25.9761 -79.3206 99° East 324 373 20,500 1,450 Climbing Miami Center
Sun 10:46:03 AM 25.9611 -79.2161 99° East 335 386 22,000 1,500 Climbing Miami Center
Sun 10:47:03 AM 25.9439 -79.1094 100° East 340 391 23,500 1,650 Climbing Miami Center
Sun 10:48:03 AM 25.9289 -79.0031 99° East 340 391 25,300 1,550 Climbing Miami Center
Sun 10:49:03 AM 25.9114 -78.9033 101° East 345 397 26,600 950 Climbing Miami Center
Sun 10:50:03 AM 25.8961 -78.7875 98° East 351 404 27,200 750 Climbing Miami Center
Sun 10:51:03 AM 25.8261 -78.7103 135° Southeast 351 404 28,100 1,000 Climbing Miami Center
Sun 10:52:03 AM 25.7753 -78.6125 120° Southeast 352 405 29,200 950 Climbing Miami Center
Sun 10:53:03 AM 25.6986 -78.5353 138° Southeast 358 412 30,000 700 Climbing Miami Center
Sun 10:54:03 AM 25.6181 -78.4558 138° Southeast 370 426 30,600 500 Climbing Miami Center
Sun 10:55:03 AM 25.5375 -78.3767 138° Southeast 382 440 31,000 500 Climbing Miami Center
Sun 10:56:03 AM 25.4547 -78.2928 138° Southeast 388 447 31,600 700 Climbing Miami Center
Sun 10:57:03 AM 25.3719 -78.2111 138° Southeast 393 452 32,400 750 Climbing Miami Center
Sun 10:58:03 AM 25.2911 -78.1275 137° Southeast 398 458 33,100 600 Climbing Miami Center
Sun 10:59:03 AM 25.2000 -78.0369 138° Southeast 398 458 33,600 600 Climbing Miami Center
Sun 11:00:03 AM 25.1275 -77.9628 137° Southeast 398 458 34,300 700 Climbing Miami Center
Sun 11:01:03 AM 25.0464 -77.8819 138° Southeast 398 458 35,000 750 Climbing Miami Center
Sun 11:02:03 AM 24.9633 -77.8033 139° Southeast 398 458 35,800 700 Climbing Miami Center
Sun 11:03:03 AM 24.8844 -77.7225 137° Southeast 398 458 36,400 500 Climbing Miami Center
Sun 11:04:03 AM 24.8033 -77.6442 139° Southeast 393 452 36,800 300 Climbing Miami Center
Sun 11:05:03 AM 24.7222 -77.5611 137° Southeast 388 447 37,000 100 Climbing Miami Center
Sun 11:06:03 AM 24.6411 -77.4783 137° Southeast 388 447 37,000  Level Miami Center
Sun 11:07:03 AM 24.5578 -77.3958 138° Southeast 388 447 37,000  Level Miami Center
Sun 11:08:03 AM 24.4744 -77.3133 138° Southeast 393 452 37,000  Level Miami Center
Sun 11:09:03 AM 24.3892 -77.2283 138° Southeast 398 458 37,000  Level Miami Center
Sun 11:10:03 AM 24.3036 -77.1439 138° Southeast 404 465 37,000  Level Miami Center
Sun 11:11:03 AM 24.2181 -77.0594 138° Southeast 409 471 37,000  Level Miami Center
Sun 11:12:03 AM 24.1325 -76.9750 138° Southeast 409 471 37,000  Level Miami Center
Sun 11:13:03 AM 24.0467 -76.8883 137° Southeast 409 471 37,000  Level Miami Center
Sun 11:14:03 AM 23.9631 -76.8111 140° Southeast 409 471 37,000  Level Miami Center
Sun 11:15:03 AM 23.8775 -76.7269 138° Southeast 409 471 37,000  Level Miami Center
Sun 11:16:03 AM 23.7894 -76.6408 138° Southeast 415 478 37,000  Level Miami Center
Sun 11:17:03 AM 23.7036 -76.5569 138° Southeast 415 478 37,000  Level Miami Center
Sun 11:18:03 AM 23.6158 -76.4756 140° Southeast 415 478 37,000  Level Miami Center
Sun 11:19:03 AM 23.5297 -76.3919 138° Southeast 415 478 37,000  Level Miami Center
Sun 11:20:03 AM 23.4417 -76.3064 138° Southeast 415 478 37,000  Level Miami Center
Sun 11:21:03 AM 23.3517 -76.2231 140° Southeast 415 478 37,000  Level Miami Center
Sun 11:22:03 AM 23.2656 -76.1375 138° Southeast 415 478 37,000  Level Miami Center
Sun 11:23:03 AM 23.1772 -76.0519 138° Southeast 415 478 37,000  Level Miami Center
Sun 11:24:03 AM 23.0892 -75.9692 139° Southeast 415 478 37,000  Level Miami Center
Sun 11:25:03 AM 22.9986 -75.8839 139° Southeast 415 478 37,000  Level Miami Center
Sun 11:26:03 AM 22.9103 -75.7989 138° Southeast 415 478 37,000  Level Miami Center
Sun 11:27:03 AM 22.8197 -75.7117 138° Southeast 420 483 37,000  Level Miami Center
Sun 11:28:03 AM 22.7314 -75.6269 138° Southeast 425 489 37,000  Level Miami Center
Sun 11:29:03 AM 22.6431 -75.5422 138° Southeast 425 489 37,000  Level Miami Center
Sun 11:30:03 AM 22.5503 -75.4556 139° Southeast 430 495 37,000  Level Miami Center
Sun 11:31:03 AM 22.4597 -75.3711 139° Southeast 435 501 37,000  Level Miami Center
Sun 11:32:03 AM 22.3689 -75.2844 139° Southeast 435 501 37,000  Level Miami Center
Sun 11:33:03 AM 22.2803 -75.2003 139° Southeast 435 501 37,000  Level Miami Center
Sun 11:34:03 AM 22.1917 -75.1186 140° Southeast 435 501 37,000  Level Miami Center
Sun 11:35:03 AM 22.1028 -75.0322 138° Southeast 435 501 37,000  Level Miami Center
Sun 11:36:03 AM 22.0100 -74.9483 140° Southeast 435 501 37,000  Level Miami Center
Sun 11:37:03 AM 21.9211 -74.8647 139° Southeast 435 501 37,000  Level Miami Center
Sun 11:38:03 AM 21.8303 -74.7811 139° Southeast 435 501 37,000  Level Miami Center
Sun 11:39:03 AM 21.7414 -74.6953 138° Southeast 435 501 37,000  Level Miami Center
Sun 11:40:03 AM 21.6525 -74.6094 138° Southeast 435 501 37,000  Level Miami Center
Sun 11:41:03 AM 21.5633 -74.5264 139° Southeast 435 501 37,000  Level Miami Center
Sun 11:42:03 AM 21.4722 -74.4408 139° Southeast 435 501 37,000  Level Miami Center
Sun 11:43:03 AM 21.3811 -74.3578 140° Southeast 435 501 37,000  Level Miami Center
Sun 11:44:03 AM 21.2900 -74.2769 140° Southeast 435 501 37,000  Level Miami Center
Sun 11:45:03 AM 21.2008 -74.1897 138° Southeast 435 501 37,000  Level Miami Center
Sun 11:46:03 AM 21.1119 -74.1092 140° Southeast 435 501 37,000  Level Miami Center
Sun 11:47:03 AM 21.0164 -74.0244 140° Southeast 435 501 37,000  Level Miami Center
Sun 11:48:03 AM 20.9272 -73.9375 138° Southeast 435 501 37,000  Level Miami Center
Sun 11:49:03 AM 20.8358 -73.8550 140° Southeast 435 501 37,000 200 Level Miami Center
Sun 11:50:03 AM 20.7444 -73.7706 139° Southeast 435 501 37,400 550 Climbing Miami Center
Sun 11:51:03 AM 20.6572 -73.6906 139° Southeast 435 501 38,100 600 Climbing Miami Center
Sun 11:52:03 AM 20.5722 -73.6150 140° Southeast 420 483 38,600 450 Climbing Miami Center
Sun 11:53:03 AM 20.4914 -73.5394 139° Southeast 401 461 39,000 200 Climbing Miami Center
Sun 11:54:03 AM 20.4019 -73.4597 140° Southeast 406 467 39,000  Level Miami Center
Sun 11:55:03 AM 20.3147 -73.3822 140° Southeast 411 473 39,000  Level Miami Center
Sun 11:56:03 AM 20.2175 -73.3272 152° Southeast 406 467 39,000  Level Miami Center
Sun 11:57:03 AM 20.1181 -73.2656 150° Southeast 406 467 39,000  Level Miami Center
Sun 11:58:03 AM 20.0186 -73.2042 150° Southeast 406 467 39,000  Level Miami Center
Sun 12:00:00 PM 19.8530 -73.0699 143° Southeast  Level FlightAware Approximate
Sun 12:07:00 PM 19.1950 -72.6867 153° Southeast  Level FlightAware Approximate
Sun 12:08:00 PM 19.1000 -72.6349 153° Southeast  Level FlightAware Approximate
Sun 12:09:00 PM 19.0055 -72.5823 152° Southeast  Level FlightAware Approximate
Sun 12:10:00 PM 18.9111 -72.5294 152° Southeast  Level FlightAware Approximate
Sun 12:11:00 PM 18.8168 -72.4766 152° Southeast  Level FlightAware Approximate
Sun 12:12:00 PM 18.7224 -72.4238 152° Southeast  Level FlightAware Approximate
Sun 12:13:00 PM 18.6278 -72.3714 153° Southeast  Level FlightAware Approximate
Sun 12:14:00 PM 18.5327 -72.3201 153° Southeast  Level FlightAware Approximate
Sun 12:15:00 PM 18.4376 -72.2690 153° Southeast  Level FlightAware Approximate
Sun 12:16:00 PM 18.3471 -72.2091 148° Southeast  Level FlightAware Approximate
Sun 12:17:00 PM 18.2569 -72.1489 148° Southeast  Level FlightAware Approximate
Sun 12:18:00 PM 18.1667 -72.0888 148° Southeast  Level FlightAware Approximate
Sun 12:19:00 PM 18.0744 -72.0323 151° Southeast  Level FlightAware Approximate
Sun 12:20:00 PM 17.9810 -71.9778 151° Southeast  Level FlightAware Approximate
Sun 12:21:00 PM 17.8887 -71.9215 149° Southeast  Level FlightAware Approximate
Sun 12:22:00 PM 17.7973 -71.8633 149° Southeast  Level FlightAware Approximate
Sun 12:23:00 PM 17.7060 -71.8052 149° Southeast  Level FlightAware Approximate
Sun 12:24:00 PM 17.6147 -71.7471 149° Southeast  Level FlightAware Approximate
Sun 12:25:00 PM 17.5261 -71.6854 150° Southeast  Level FlightAware Approximate
Sun 12:26:00 PM 17.4338 -71.6291 150° Southeast  Level FlightAware Approximate
Sun 12:27:00 PM 17.3414 -71.5729 150° Southeast  Level FlightAware Approximate
Sun 12:28:00 PM 17.2491 -71.5167 150° Southeast  Level FlightAware Approximate
Sun 12:29:00 PM 17.1568 -71.4605 149° Southeast  Level FlightAware Approximate
Sun 12:30:00 PM 17.0651 -71.4031 149° Southeast  Level FlightAware Approximate
Sun 12:31:00 PM 16.9734 -71.3458 149° Southeast  Level FlightAware Approximate
Sun 12:32:00 PM 16.8816 -71.2887 150° Southeast  Level FlightAware Approximate
Sun 12:33:00 PM 16.7896 -71.2322 150° Southeast  Level FlightAware Approximate
Sun 12:34:00 PM 16.6975 -71.1757 150° Southeast  Level FlightAware Approximate
Sun 12:35:00 PM 16.6054 -71.1193 150° Southeast  Level FlightAware Approximate
Sun 12:36:00 PM 16.5132 -71.0629 150° Southeast  Level FlightAware Approximate
Sun 12:37:00 PM 16.4211 -71.0066 150° Southeast  Level FlightAware Approximate
Sun 12:38:00 PM 16.3290 -70.9503 150° Southeast  Level FlightAware Approximate
Sun 12:39:00 PM 16.2368 -70.8941 150° Southeast  Level FlightAware Approximate
Sun 12:40:00 PM 16.1446 -70.8380 150° Southeast  Level FlightAware Approximate
Sun 12:41:00 PM 16.0524 -70.7819 150° Southeast  Level FlightAware Approximate
Sun 12:42:00 PM 15.9581 -70.7301 155° Southeast  Level FlightAware Approximate
Sun 12:43:00 PM 15.8609 -70.6840 155° Southeast  Level FlightAware Approximate
Sun 12:44:00 PM 15.7637 -70.6379 155° Southeast  Level FlightAware Approximate
Sun 12:45:00 PM 15.6666 -70.5919 155° Southeast  Level FlightAware Approximate
Sun 12:46:00 PM 15.5694 -70.5459 155° Southeast  Level FlightAware Approximate
Sun 12:47:00 PM 15.4722 -70.5000 156° South  Level FlightAware Approximate
Sun 12:48:00 PM 15.3750 -70.4541 156° South  Level FlightAware Approximate
Sun 12:49:00 PM 15.2778 -70.4082 156° South  Level FlightAware Approximate
Sun 12:50:00 PM 15.1805 -70.3624 156° South  Level FlightAware Approximate
Sun 12:51:00 PM 15.0833 -70.3167 156° South  Level FlightAware Approximate
Sun 12:52:00 PM 14.9855 -70.2723 156° South  Level FlightAware Approximate
Sun 12:53:00 PM 14.8876 -70.2279 156° South  Level FlightAware Approximate
Sun 12:54:00 PM 14.7898 -70.1836 156° South  Level FlightAware Approximate
Sun 12:55:00 PM 14.6920 -70.1393 156° South  Level FlightAware Approximate
Sun 12:56:00 PM 14.5941 -70.0951 156° South  Level FlightAware Approximate
Sun 12:57:00 PM 14.4963 -70.0509 156° South  Level FlightAware Approximate
Sun 12:58:00 PM 14.3984 -70.0068 156° South  Level FlightAware Approximate
Sun 12:59:00 PM 14.3008 -69.9621 156° South  Level FlightAware Approximate
Sun 01:00:00 PM 14.2032 -69.9173 156° South  Level FlightAware Approximate
Sun 01:01:00 PM 14.1056 -69.8725 156° South  Level FlightAware Approximate
Sun 01:02:00 PM 14.0080 -69.8278 156° South  Level FlightAware Approximate
Sun 01:03:00 PM 13.9104 -69.7831 156° South  Level FlightAware Approximate
Sun 01:04:00 PM 13.8128 -69.7384 156° South  Level FlightAware Approximate
Sun 01:05:00 PM 13.7152 -69.6938 156° South  Level FlightAware Approximate
Sun 01:06:00 PM 13.6176 -69.6493 156° South  Level FlightAware Approximate
Sun 01:07:00 PM 13.5200 -69.6047 156° South  Level FlightAware Approximate
Sun 01:08:00 PM 13.4223 -69.5602 156° South  Level FlightAware Approximate
Sun 01:09:00 PM 13.3247 -69.5158 156° South  Level FlightAware Approximate
Sun 01:10:00 PM 13.2270 -69.4713 156° South  Level FlightAware Approximate
Sun 01:11:00 PM 13.1294 -69.4269 156° South  Level FlightAware Approximate
Sun 01:12:00 PM 13.0317 -69.3826 156° South  Level FlightAware Approximate
Sun 01:13:00 PM 12.9339 -69.3387 156° South  Level FlightAware Approximate
Sun 01:14:00 PM 12.8360 -69.2948 156° South  Level FlightAware Approximate
Sun 01:15:00 PM 12.7381 -69.2509 156° South  Level FlightAware Approximate
Sun 01:16:00 PM 12.6403 -69.2071 156° South  Level FlightAware Approximate
Sun 01:17:00 PM 12.5424 -69.1632 156° South  Level FlightAware Approximate
Sun 01:18:00 PM 12.4448 -69.1188 156° South  Level FlightAware Approximate
Sun 01:19:00 PM 12.3472 -69.0744 156° South  Level FlightAware Approximate
Sun 01:20:00 PM 12.2496 -69.0301 156° South  Level FlightAware Approximate
Sun 01:21:00 PM 12.1588 -68.9755 136° Southeast  Level FlightAware Approximate
Sun 01:22:00 PM 12.0824 -68.8991 136° Southeast  Level FlightAware Approximate
Sun 01:23:00 PM 12.0051 -68.8238 138° Southeast  Level FlightAware Approximate
Sun 01:24:00 PM 11.9261 -68.7504 138° Southeast  Level FlightAware Approximate
Sun 01:25:00 PM 11.8470 -68.6770 138° Southeast  Level FlightAware Approximate
Sun 01:26:00 PM 11.7684 -68.6031 138° Southeast  Level FlightAware Approximate
Sun 01:27:00 PM 11.6887 -68.5306 138° Southeast  Level FlightAware Approximate
Sun 01:28:00 PM 11.6089 -68.4581 138° Southeast  Level FlightAware Approximate
Sun 01:29:00 PM 11.5412 -68.3745 136° Southeast  Level FlightAware Approximate
Sun 01:30:00 PM 11.4626 -68.3008 138° Southeast  Level FlightAware Approximate
Sun 01:31:00 PM 11.3829 -68.2283 138° Southeast  Level FlightAware Approximate
Sun 01:32:00 PM 11.3031 -68.1559 138° Southeast  Level FlightAware Approximate
Sun 01:33:00 PM 11.2234 -68.0834 138° Southeast  Level FlightAware Approximate
Sun 01:34:00 PM 11.1438 -68.0108 137° Southeast  Level FlightAware Approximate
Sun 01:35:00 PM 11.0656 -67.9367 137° Southeast  Level FlightAware Approximate
Sun 01:36:00 PM 10.9874 -67.8625 137° Southeast  Level FlightAware Approximate
Sun 01:37:00 PM 10.9092 -67.7885 137° Southeast  Level FlightAware Approximate
Sun 01:38:00 PM 10.8311 -67.7144 135° Southeast  Level FlightAware Approximate
Sun 01:39:00 PM 10.7549 -67.6382 135° Southeast  Level FlightAware Approximate
Sun 01:40:00 PM 10.6721 -67.5703 147° Southeast  Level FlightAware Approximate
Sun 01:41:00 PM 10.6574 -67.4651 95° East  Level FlightAware Approximate
Sun 01:42:00 PM 10.6474 -67.3569 96° East  Level FlightAware Approximate
Sun 01:43:00 PM 10.6365 -67.2488 96° East  Level FlightAware Approximate
Sun 01:44:00 PM 10.6197 -67.1425 109° East  Level FlightAware Approximate
Sun 01:45:00 PM 10.6129 -67.0349 104° East  Level FlightAware Approximate
Sun 01:46:00 PM 10.6031 -66.9906 90° East  Level Estimated
Sun 01:47:00 PM 10.6031 -66.9906 90° East  Level Estimated
Sun 01:48:00 PM 10.6031 -66.9906 90° East  Level Estimated
Sun 01:49:00 PM 10.6031 -66.9906 90° East  Level Estimated
Sun 01:50:00 PM 10.6031 -66.9906 90° East  Level Estimated
Sun 01:51:00 PM 10.6031 -66.9906 90° East  Level Estimated
Sun 01:52:00 PM 10.6031 -66.9906 90° East  Level Estimated
Sun 01:53:00 PM 10.6031 -66.9906 90° East  Level Estimated
Sun 01:54:00 PM 10.6031 -66.9906 90° East  Level Estimated
Sun 01:55:00 PM 10.6031 -66.9906 90° East  Level Estimated
Sun 01:56:00 PM 10.6031 -66.9906 90° East  Level Estimated
Sun 01:57:00 PM 10.6031 -66.9906 90° East  Level Estimated
Sun 01:58:00 PM 10.6031 -66.9906 90° East  Level Estimated
Sun 01:59:00 PM 10.6031 -66.9906 90° East  Level Estimated
Sun 02:00:00 PM 10.6031 -66.9906 90° East  Level Estimated
Sun 02:01:00 PM 10.6031 -66.9906 90° East  Level Estimated
Sun 02:02:00 PM 10.6031 -66.9906 90° East  Level Estimated
Sun 02:03:00 PM 10.6031 -66.9906 90° East  Level Estimated

Login

Don't have an account? Register now (free) for customized features, flight alerts, and more!